Aviation Digital Data Service (ADDS)

Output produced by METARs form (2117 UTC 24 October 2014)
found at http://aviationweather.gov/adds/metars/
 
KMSS 242059Z 2421/2518 VRB03KT P6SM FEW090 
     FM250000 VRB03KT P6SM SKC 
     FM251200 23005KT P6SM SCT100 BKN150